sensor_id;sensor_type;location;lat;lon;timestamp;temperature;humidity
10788;DHT22;5446;50.826;4.380;2022-08-21T00:00:37;17.70;99.90
10788;DHT22;5446;50.826;4.380;2022-08-21T00:03:06;17.70;99.90
10788;DHT22;5446;50.826;4.380;2022-08-21T00:05:36;17.60;99.90
10788;DHT22;5446;50.826;4.380;2022-08-21T00:08:03;17.60;99.90
10788;DHT22;5446;50.826;4.380;2022-08-21T00:10:29;17.60;99.90
10788;DHT22;5446;50.826;4.380;2022-08-21T00:12:54;17.50;99.90
10788;DHT22;5446;50.826;4.380;2022-08-21T00:15:25;17.50;99.90
10788;DHT22;5446;50.826;4.380;2022-08-21T00:17:52;17.50;99.90
10788;DHT22;5446;50.826;4.380;2022-08-21T00:20:19;17.40;99.90
10788;DHT22;5446;50.826;4.380;2022-08-21T00:22:45;17.40;99.90
10788;DHT22;5446;50.826;4.380;2022-08-21T00:25:13;17.30;99.90
10788;DHT22;5446;50.826;4.380;2022-08-21T00:27:39;17.30;99.90
10788;DHT22;5446;50.826;4.380;2022-08-21T00:30:08;17.30;99.90
10788;DHT22;5446;50.826;4.380;2022-08-21T00:32:37;17.30;99.90
10788;DHT22;5446;50.826;4.380;2022-08-21T00:35:05;17.20;99.90
10788;DHT22;5446;50.826;4.380;2022-08-21T00:37:31;17.20;99.90
10788;DHT22;5446;50.826;4.380;2022-08-21T00:39:56;17.20;99.90
10788;DHT22;5446;50.826;4.380;2022-08-21T00:42:22;17.10;99.90
10788;DHT22;5446;50.826;4.380;2022-08-21T00:44:49;17.10;99.90
10788;DHT22;5446;50.826;4.380;2022-08-21T00:47:17;17.10;99.90
10788;DHT22;5446;50.826;4.380;2022-08-21T00:49:42;17.10;99.90
10788;DHT22;5446;50.826;4.380;2022-08-21T00:52:12;17.10;99.90
10788;DHT22;5446;50.826;4.380;2022-08-21T00:54:40;17.00;99.90
10788;DHT22;5446;50.826;4.380;2022-08-21T00:57:14;17.00;99.90
10788;DHT22;5446;50.826;4.380;2022-08-21T00:59:44;17.00;99.90
10788;DHT22;5446;50.826;4.380;2022-08-21T01:02:11;17.00;99.90
10788;DHT22;5446;50.826;4.380;2022-08-21T01:04:37;16.90;99.90
10788;DHT22;5446;50.826;4.380;2022-08-21T01:07:03;16.90;99.90
10788;DHT22;5446;50.826;4.380;2022-08-21T01:09:30;16.90;99.90
10788;DHT22;5446;50.826;4.380;2022-08-21T01:11:55;16.90;99.90
10788;DHT22;5446;50.826;4.380;2022-08-21T01:14:21;16.80;99.90
10788;DHT22;5446;50.826;4.380;2022-08-21T01:16:50;16.80;99.90
10788;DHT22;5446;50.826;4.380;2022-08-21T01:19:18;16.80;99.90
10788;DHT22;5446;50.826;4.380;2022-08-21T01:21:45;16.80;99.90
10788;DHT22;5446;50.826;4.380;2022-08-21T01:24:12;16.70;99.90
10788;DHT22;5446;50.826;4.380;2022-08-21T01:26:37;16.70;99.90
10788;DHT22;5446;50.826;4.380;2022-08-21T01:31:41;16.60;99.90
10788;DHT22;5446;50.826;4.380;2022-08-21T01:34:07;16.60;99.90
10788;DHT22;5446;50.826;4.380;2022-08-21T01:36:33;16.60;99.90
10788;DHT22;5446;50.826;4.380;2022-08-21T01:39:00;16.60;99.90
10788;DHT22;5446;50.826;4.380;2022-08-21T01:41:25;16.60;99.90
10788;DHT22;5446;50.826;4.380;2022-08-21T01:43:51;16.50;99.90
10788;DHT22;5446;50.826;4.380;2022-08-21T01:46:17;16.50;99.90
10788;DHT22;5446;50.826;4.380;2022-08-21T01:48:43;16.50;99.90
10788;DHT22;5446;50.826;4.380;2022-08-21T01:51:10;16.40;99.90
10788;DHT22;5446;50.826;4.380;2022-08-21T01:53:36;16.40;99.90
10788;DHT22;5446;50.826;4.380;2022-08-21T01:56:09;16.40;99.90
10788;DHT22;5446;50.826;4.380;2022-08-21T01:58:35;16.40;99.90
10788;DHT22;5446;50.826;4.380;2022-08-21T02:01:01;16.40;99.90
10788;DHT22;5446;50.826;4.380;2022-08-21T02:03:28;16.30;99.90
10788;DHT22;5446;50.826;4.380;2022-08-21T02:05:54;16.40;99.90
10788;DHT22;5446;50.826;4.380;2022-08-21T02:08:20;16.30;99.90
10788;DHT22;5446;50.826;4.380;2022-08-21T02:10:49;16.30;99.90
10788;DHT22;5446;50.826;4.380;2022-08-21T02:13:15;16.30;99.90
10788;DHT22;5446;50.826;4.380;2022-08-21T02:15:41;16.30;99.90
10788;DHT22;5446;50.826;4.380;2022-08-21T02:18:07;16.30;99.90
10788;DHT22;5446;50.826;4.380;2022-08-21T02:20:38;16.30;99.90
10788;DHT22;5446;50.826;4.380;2022-08-21T02:23:06;16.20;99.90
10788;DHT22;5446;50.826;4.380;2022-08-21T02:25:32;16.20;99.90
10788;DHT22;5446;50.826;4.380;2022-08-21T02:27:59;16.20;99.90
10788;DHT22;5446;50.826;4.380;2022-08-21T02:30:32;16.20;99.90
10788;DHT22;5446;50.826;4.380;2022-08-21T02:32:58;16.10;99.90
10788;DHT22;5446;50.826;4.380;2022-08-21T02:35:24;16.10;99.90
10788;DHT22;5446;50.826;4.380;2022-08-21T02:38:01;16.10;99.90
10788;DHT22;5446;50.826;4.380;2022-08-21T02:40:30;16.10;99.90
10788;DHT22;5446;50.826;4.380;2022-08-21T02:42:57;16.10;99.90
10788;DHT22;5446;50.826;4.380;2022-08-21T02:45:23;16.10;99.90
10788;DHT22;5446;50.826;4.380;2022-08-21T02:47:50;16.10;99.90
10788;DHT22;5446;50.826;4.380;2022-08-21T02:50:23;16.10;99.90
10788;DHT22;5446;50.826;4.380;2022-08-21T02:52:49;16.10;99.90
10788;DHT22;5446;50.826;4.380;2022-08-21T02:55:16;16.10;99.90
10788;DHT22;5446;50.826;4.380;2022-08-21T02:57:42;16.10;99.90
10788;DHT22;5446;50.826;4.380;2022-08-21T03:00:08;16.10;99.90
10788;DHT22;5446;50.826;4.380;2022-08-21T03:02:36;16.00;99.90
10788;DHT22;5446;50.826;4.380;2022-08-21T03:05:03;16.00;99.90
10788;DHT22;5446;50.826;4.380;2022-08-21T03:07:29;16.00;99.90
10788;DHT22;5446;50.826;4.380;2022-08-21T03:09:55;16.00;99.90
10788;DHT22;5446;50.826;4.380;2022-08-21T03:12:21;16.00;99.90
10788;DHT22;5446;50.826;4.380;2022-08-21T03:14:47;16.00;99.90
10788;DHT22;5446;50.826;4.380;2022-08-21T03:17:12;15.90;99.90
10788;DHT22;5446;50.826;4.380;2022-08-21T03:19:38;15.90;99.90
10788;DHT22;5446;50.826;4.380;2022-08-21T03:22:04;16.00;99.90
10788;DHT22;5446;50.826;4.380;2022-08-21T03:24:30;15.90;99.90
10788;DHT22;5446;50.826;4.380;2022-08-21T03:26:56;15.90;99.90
10788;DHT22;5446;50.826;4.380;2022-08-21T03:29:22;15.90;99.90
10788;DHT22;5446;50.826;4.380;2022-08-21T03:31:48;15.90;99.90
10788;DHT22;5446;50.826;4.380;2022-08-21T03:34:14;15.90;99.90
10788;DHT22;5446;50.826;4.380;2022-08-21T03:36:40;15.90;99.90
10788;DHT22;5446;50.826;4.380;2022-08-21T03:39:05;15.90;99.90
10788;DHT22;5446;50.826;4.380;2022-08-21T03:41:31;15.80;99.90
10788;DHT22;5446;50.826;4.380;2022-08-21T03:43:57;15.80;99.90
10788;DHT22;5446;50.826;4.380;2022-08-21T03:46:24;15.80;99.90
10788;DHT22;5446;50.826;4.380;2022-08-21T03:48:50;15.80;99.90
10788;DHT22;5446;50.826;4.380;2022-08-21T03:51:18;15.80;99.90
10788;DHT22;5446;50.826;4.380;2022-08-21T03:53:44;15.80;99.90
10788;DHT22;5446;50.826;4.380;2022-08-21T03:56:10;15.80;99.90
10788;DHT22;5446;50.826;4.380;2022-08-21T03:58:36;15.80;99.90
10788;DHT22;5446;50.826;4.380;2022-08-21T04:01:03;15.80;99.90
10788;DHT22;5446;50.826;4.380;2022-08-21T04:03:29;15.70;99.90
10788;DHT22;5446;50.826;4.380;2022-08-21T04:05:55;15.80;99.90
10788;DHT22;5446;50.826;4.380;2022-08-21T04:08:21;15.70;99.90
10788;DHT22;5446;50.826;4.380;2022-08-21T04:10:50;15.70;99.90
10788;DHT22;5446;50.826;4.380;2022-08-21T04:13:16;15.70;99.90
10788;DHT22;5446;50.826;4.380;2022-08-21T04:15:42;15.60;99.90
10788;DHT22;5446;50.826;4.380;2022-08-21T04:18:07;15.60;99.90
10788;DHT22;5446;50.826;4.380;2022-08-21T04:20:34;15.60;99.90
10788;DHT22;5446;50.826;4.380;2022-08-21T04:23:00;15.60;99.90
10788;DHT22;5446;50.826;4.380;2022-08-21T04:25:26;15.60;99.90
10788;DHT22;5446;50.826;4.380;2022-08-21T04:27:52;15.60;99.90
10788;DHT22;5446;50.826;4.380;2022-08-21T04:30:36;15.60;99.90
10788;DHT22;5446;50.826;4.380;2022-08-21T04:33:24;15.60;99.90
10788;DHT22;5446;50.826;4.380;2022-08-21T04:35:50;15.50;99.90
10788;DHT22;5446;50.826;4.380;2022-08-21T04:38:16;15.50;99.90
10788;DHT22;5446;50.826;4.380;2022-08-21T04:40:42;15.50;99.90
10788;DHT22;5446;50.826;4.380;2022-08-21T04:43:09;15.50;99.90
10788;DHT22;5446;50.826;4.380;2022-08-21T04:45:38;15.50;99.90
10788;DHT22;5446;50.826;4.380;2022-08-21T04:48:06;15.50;99.90
10788;DHT22;5446;50.826;4.380;2022-08-21T04:54:07;15.50;99.90
10788;DHT22;5446;50.826;4.380;2022-08-21T04:56:35;15.60;99.90
10788;DHT22;5446;50.826;4.380;2022-08-21T04:59:06;15.50;99.90
10788;DHT22;5446;50.826;4.380;2022-08-21T05:01:36;15.50;99.90
10788;DHT22;5446;50.826;4.380;2022-08-21T05:07:27;15.50;99.90
10788;DHT22;5446;50.826;4.380;2022-08-21T05:09:54;15.50;99.90
10788;DHT22;5446;50.826;4.380;2022-08-21T05:12:21;15.50;99.90
10788;DHT22;5446;50.826;4.380;2022-08-21T05:14:47;15.60;99.90
10788;DHT22;5446;50.826;4.380;2022-08-21T05:17:13;15.50;99.90
10788;DHT22;5446;50.826;4.380;2022-08-21T05:19:39;15.60;99.90
10788;DHT22;5446;50.826;4.380;2022-08-21T05:22:05;15.60;99.90
10788;DHT22;5446;50.826;4.380;2022-08-21T05:24:32;15.50;99.90
10788;DHT22;5446;50.826;4.380;2022-08-21T05:26:58;15.60;99.90
10788;DHT22;5446;50.826;4.380;2022-08-21T05:29:24;15.60;99.90
10788;DHT22;5446;50.826;4.380;2022-08-21T05:31:49;15.60;99.90
10788;DHT22;5446;50.826;4.380;2022-08-21T05:34:19;15.60;99.90
10788;DHT22;5446;50.826;4.380;2022-08-21T05:36:45;15.60;99.90
10788;DHT22;5446;50.826;4.380;2022-08-21T05:39:11;15.60;99.90
10788;DHT22;5446;50.826;4.380;2022-08-21T05:41:37;15.60;99.90
10788;DHT22;5446;50.826;4.380;2022-08-21T05:44:04;15.60;99.90
10788;DHT22;5446;50.826;4.380;2022-08-21T05:46:29;15.60;99.90
10788;DHT22;5446;50.826;4.380;2022-08-21T05:48:58;15.60;99.90
10788;DHT22;5446;50.826;4.380;2022-08-21T05:51:24;15.60;99.90
10788;DHT22;5446;50.826;4.380;2022-08-21T05:53:49;15.70;99.90
10788;DHT22;5446;50.826;4.380;2022-08-21T05:56:15;15.70;99.90
10788;DHT22;5446;50.826;4.380;2022-08-21T05:58:41;15.70;99.90
10788;DHT22;5446;50.826;4.380;2022-08-21T06:01:07;15.80;99.90
10788;DHT22;5446;50.826;4.380;2022-08-21T06:03:36;15.80;99.90
10788;DHT22;5446;50.826;4.380;2022-08-21T06:06:02;15.70;99.90
10788;DHT22;5446;50.826;4.380;2022-08-21T06:08:28;15.80;99.90
10788;DHT22;5446;50.826;4.380;2022-08-21T06:10:56;15.80;99.90
10788;DHT22;5446;50.826;4.380;2022-08-21T06:13:23;15.90;99.90
10788;DHT22;5446;50.826;4.380;2022-08-21T06:15:50;15.90;99.90
10788;DHT22;5446;50.826;4.380;2022-08-21T06:18:16;15.90;99.90
10788;DHT22;5446;50.826;4.380;2022-08-21T06:20:42;16.00;99.90
10788;DHT22;5446;50.826;4.380;2022-08-21T06:23:08;16.10;99.90
10788;DHT22;5446;50.826;4.380;2022-08-21T06:25:33;16.10;99.90
10788;DHT22;5446;50.826;4.380;2022-08-21T06:28:09;16.10;99.90
10788;DHT22;5446;50.826;4.380;2022-08-21T06:30:36;16.20;99.90
10788;DHT22;5446;50.826;4.380;2022-08-21T06:33:03;16.20;99.90
10788;DHT22;5446;50.826;4.380;2022-08-21T06:35:29;16.30;99.90
10788;DHT22;5446;50.826;4.380;2022-08-21T06:37:56;16.40;99.90
10788;DHT22;5446;50.826;4.380;2022-08-21T06:40:22;16.40;99.90
10788;DHT22;5446;50.826;4.380;2022-08-21T06:42:48;16.40;99.90
10788;DHT22;5446;50.826;4.380;2022-08-21T06:45:14;16.50;99.90
10788;DHT22;5446;50.826;4.380;2022-08-21T06:47:40;16.60;99.90
10788;DHT22;5446;50.826;4.380;2022-08-21T06:50:07;16.60;99.90
10788;DHT22;5446;50.826;4.380;2022-08-21T06:52:34;16.60;99.90
10788;DHT22;5446;50.826;4.380;2022-08-21T06:55:00;16.60;99.90
10788;DHT22;5446;50.826;4.380;2022-08-21T06:57:26;16.70;99.90
10788;DHT22;5446;50.826;4.380;2022-08-21T06:59:52;16.80;99.90
10788;DHT22;5446;50.826;4.380;2022-08-21T07:02:17;16.90;99.90
10788;DHT22;5446;50.826;4.380;2022-08-21T07:04:43;16.90;99.90
10788;DHT22;5446;50.826;4.380;2022-08-21T07:07:09;16.90;99.90
10788;DHT22;5446;50.826;4.380;2022-08-21T07:09:35;17.00;99.90
10788;DHT22;5446;50.826;4.380;2022-08-21T07:12:02;17.10;99.90
10788;DHT22;5446;50.826;4.380;2022-08-21T07:14:28;17.10;99.90
10788;DHT22;5446;50.826;4.380;2022-08-21T07:16:53;17.20;99.90
10788;DHT22;5446;50.826;4.380;2022-08-21T07:19:19;17.30;99.90
10788;DHT22;5446;50.826;4.380;2022-08-21T07:21:45;17.30;99.90
10788;DHT22;5446;50.826;4.380;2022-08-21T07:24:12;17.40;99.90
10788;DHT22;5446;50.826;4.380;2022-08-21T07:26:38;17.50;99.90
10788;DHT22;5446;50.826;4.380;2022-08-21T07:29:03;17.60;99.90
10788;DHT22;5446;50.826;4.380;2022-08-21T07:31:29;17.70;99.90
10788;DHT22;5446;50.826;4.380;2022-08-21T07:33:55;17.70;99.90
10788;DHT22;5446;50.826;4.380;2022-08-21T07:36:21;17.70;99.90
10788;DHT22;5446;50.826;4.380;2022-08-21T07:38:47;17.80;99.90
10788;DHT22;5446;50.826;4.380;2022-08-21T07:41:19;17.90;99.90
10788;DHT22;5446;50.826;4.380;2022-08-21T07:43:45;17.90;99.90
10788;DHT22;5446;50.826;4.380;2022-08-21T07:46:11;18.00;99.90
10788;DHT22;5446;50.826;4.380;2022-08-21T07:48:37;18.20;99.90
10788;DHT22;5446;50.826;4.380;2022-08-21T07:51:08;18.20;99.90
10788;DHT22;5446;50.826;4.380;2022-08-21T07:53:35;18.30;99.90
10788;DHT22;5446;50.826;4.380;2022-08-21T07:56:01;18.30;99.90
10788;DHT22;5446;50.826;4.380;2022-08-21T07:58:27;18.50;99.90
10788;DHT22;5446;50.826;4.380;2022-08-21T08:00:52;18.60;99.90
10788;DHT22;5446;50.826;4.380;2022-08-21T08:03:18;18.70;99.90
10788;DHT22;5446;50.826;4.380;2022-08-21T08:05:44;18.70;99.90
10788;DHT22;5446;50.826;4.380;2022-08-21T08:08:28;18.80;99.90
10788;DHT22;5446;50.826;4.380;2022-08-21T08:10:56;18.80;99.90
10788;DHT22;5446;50.826;4.380;2022-08-21T08:13:22;18.90;99.90
10788;DHT22;5446;50.826;4.380;2022-08-21T08:15:47;18.90;99.90
10788;DHT22;5446;50.826;4.380;2022-08-21T08:18:13;18.70;99.90
10788;DHT22;5446;50.826;4.380;2022-08-21T08:20:39;18.80;99.90
10788;DHT22;5446;50.826;4.380;2022-08-21T08:23:07;18.80;99.90
10788;DHT22;5446;50.826;4.380;2022-08-21T08:28:54;18.80;99.90
10788;DHT22;5446;50.826;4.380;2022-08-21T08:31:20;18.70;99.90
10788;DHT22;5446;50.826;4.380;2022-08-21T08:33:45;18.80;99.90
10788;DHT22;5446;50.826;4.380;2022-08-21T08:36:16;18.90;99.90
10788;DHT22;5446;50.826;4.380;2022-08-21T08:38:42;19.00;99.90
10788;DHT22;5446;50.826;4.380;2022-08-21T08:41:19;19.00;99.90
10788;DHT22;5446;50.826;4.380;2022-08-21T08:43:54;19.10;99.90
10788;DHT22;5446;50.826;4.380;2022-08-21T08:46:46;19.10;99.90
10788;DHT22;5446;50.826;4.380;2022-08-21T08:52:18;19.30;99.90
10788;DHT22;5446;50.826;4.380;2022-08-21T08:57:28;19.30;99.90
10788;DHT22;5446;50.826;4.380;2022-08-21T08:59:59;19.30;99.90
10788;DHT22;5446;50.826;4.380;2022-08-21T09:02:25;19.40;99.90
10788;DHT22;5446;50.826;4.380;2022-08-21T09:04:53;19.40;99.90
10788;DHT22;5446;50.826;4.380;2022-08-21T09:10:12;19.60;99.90
10788;DHT22;5446;50.826;4.380;2022-08-21T09:16:03;19.70;99.90
10788;DHT22;5446;50.826;4.380;2022-08-21T09:21:35;20.00;99.90
10788;DHT22;5446;50.826;4.380;2022-08-21T09:26:50;20.20;99.90
10788;DHT22;5446;50.826;4.380;2022-08-21T09:29:20;20.20;99.90
10788;DHT22;5446;50.826;4.380;2022-08-21T09:31:47;20.50;99.90
10788;DHT22;5446;50.826;4.380;2022-08-21T09:34:25;20.50;99.90
10788;DHT22;5446;50.826;4.380;2022-08-21T09:36:51;20.80;99.90
10788;DHT22;5446;50.826;4.380;2022-08-21T09:39:39;21.00;99.90
10788;DHT22;5446;50.826;4.380;2022-08-21T09:42:07;21.10;99.90
10788;DHT22;5446;50.826;4.380;2022-08-21T09:44:36;21.20;99.90
10788;DHT22;5446;50.826;4.380;2022-08-21T09:47:06;21.40;99.90
10788;DHT22;5446;50.826;4.380;2022-08-21T09:49:37;21.40;99.90
10788;DHT22;5446;50.826;4.380;2022-08-21T09:52:14;21.50;99.90
10788;DHT22;5446;50.826;4.380;2022-08-21T09:54:41;21.50;99.90
10788;DHT22;5446;50.826;4.380;2022-08-21T09:59:54;21.40;99.90
10788;DHT22;5446;50.826;4.380;2022-08-21T10:02:30;21.30;99.90
10788;DHT22;5446;50.826;4.380;2022-08-21T10:05:20;21.20;99.90
10788;DHT22;5446;50.826;4.380;2022-08-21T10:07:48;21.20;99.90
10788;DHT22;5446;50.826;4.380;2022-08-21T10:10:36;21.10;99.90
10788;DHT22;5446;50.826;4.380;2022-08-21T10:24:42;21.30;99.90
10788;DHT22;5446;50.826;4.380;2022-08-21T10:29:59;21.30;99.90
10788;DHT22;5446;50.826;4.380;2022-08-21T10:35:32;21.30;99.90
10788;DHT22;5446;50.826;4.380;2022-08-21T10:43:51;21.60;99.90
10788;DHT22;5446;50.826;4.380;2022-08-21T10:49:21;22.00;99.90
10788;DHT22;5446;50.826;4.380;2022-08-21T10:55:22;22.20;99.90
10788;DHT22;5446;50.826;4.380;2022-08-21T10:58:01;22.10;99.90
10788;DHT22;5446;50.826;4.380;2022-08-21T11:00:39;22.20;99.90
10788;DHT22;5446;50.826;4.380;2022-08-21T11:03:31;22.30;99.90
10788;DHT22;5446;50.826;4.380;2022-08-21T11:06:23;22.00;99.90
10788;DHT22;5446;50.826;4.380;2022-08-21T11:08:52;22.00;99.90
10788;DHT22;5446;50.826;4.380;2022-08-21T11:11:29;22.30;99.90
10788;DHT22;5446;50.826;4.380;2022-08-21T11:17:11;22.30;99.90
10788;DHT22;5446;50.826;4.380;2022-08-21T11:19:50;22.30;99.90
10788;DHT22;5446;50.826;4.380;2022-08-21T11:25:07;22.30;99.90
10788;DHT22;5446;50.826;4.380;2022-08-21T11:27:51;22.10;99.90
10788;DHT22;5446;50.826;4.380;2022-08-21T11:30:18;22.40;99.90
10788;DHT22;5446;50.826;4.380;2022-08-21T11:38:25;22.20;99.90
10788;DHT22;5446;50.826;4.380;2022-08-21T11:40:57;22.30;99.90
10788;DHT22;5446;50.826;4.380;2022-08-21T11:43:43;22.30;99.90
10788;DHT22;5446;50.826;4.380;2022-08-21T11:46:33;22.30;99.90
10788;DHT22;5446;50.826;4.380;2022-08-21T11:51:50;22.60;99.90
10788;DHT22;5446;50.826;4.380;2022-08-21T11:54:33;22.50;99.90
10788;DHT22;5446;50.826;4.380;2022-08-21T12:00:38;22.40;99.90
10788;DHT22;5446;50.826;4.380;2022-08-21T12:03:38;22.70;99.90
10788;DHT22;5446;50.826;4.380;2022-08-21T12:06:08;22.50;99.90
10788;DHT22;5446;50.826;4.380;2022-08-21T12:11:08;23.00;99.90
10788;DHT22;5446;50.826;4.380;2022-08-21T12:13:38;22.90;99.90
10788;DHT22;5446;50.826;4.380;2022-08-21T12:16:12;22.80;99.90
10788;DHT22;5446;50.826;4.380;2022-08-21T12:18:38;22.80;99.90
10788;DHT22;5446;50.826;4.380;2022-08-21T12:26:32;23.00;99.90
10788;DHT22;5446;50.826;4.380;2022-08-21T12:29:12;22.90;99.90
10788;DHT22;5446;50.826;4.380;2022-08-21T12:31:51;22.80;99.90
10788;DHT22;5446;50.826;4.380;2022-08-21T12:34:17;22.90;99.90
10788;DHT22;5446;50.826;4.380;2022-08-21T12:36:53;23.00;99.90
10788;DHT22;5446;50.826;4.380;2022-08-21T12:39:29;23.10;99.90
10788;DHT22;5446;50.826;4.380;2022-08-21T12:45:23;23.20;99.90
10788;DHT22;5446;50.826;4.380;2022-08-21T12:47:59;23.20;99.90
10788;DHT22;5446;50.826;4.380;2022-08-21T12:50:54;23.20;99.90
10788;DHT22;5446;50.826;4.380;2022-08-21T12:53:49;23.20;99.90
10788;DHT22;5446;50.826;4.380;2022-08-21T12:56:23;23.40;99.90
10788;DHT22;5446;50.826;4.380;2022-08-21T12:59:04;23.40;99.90
10788;DHT22;5446;50.826;4.380;2022-08-21T13:01:49;23.50;99.90
10788;DHT22;5446;50.826;4.380;2022-08-21T13:04:36;23.60;99.90
10788;DHT22;5446;50.826;4.380;2022-08-21T13:07:07;23.60;99.90
10788;DHT22;5446;50.826;4.380;2022-08-21T13:09:38;23.60;99.90
10788;DHT22;5446;50.826;4.380;2022-08-21T13:12:19;23.70;99.90
10788;DHT22;5446;50.826;4.380;2022-08-21T13:14:45;23.90;99.90
10788;DHT22;5446;50.826;4.380;2022-08-21T13:17:17;24.00;99.90
10788;DHT22;5446;50.826;4.380;2022-08-21T13:19:59;24.00;99.90
10788;DHT22;5446;50.826;4.380;2022-08-21T13:22:26;23.90;99.90
10788;DHT22;5446;50.826;4.380;2022-08-21T13:24:52;23.80;99.90
10788;DHT22;5446;50.826;4.380;2022-08-21T13:27:30;23.80;99.90
10788;DHT22;5446;50.826;4.380;2022-08-21T13:30:17;23.90;99.90
10788;DHT22;5446;50.826;4.380;2022-08-21T13:32:47;23.90;99.90
10788;DHT22;5446;50.826;4.380;2022-08-21T13:35:24;23.70;99.90
10788;DHT22;5446;50.826;4.380;2022-08-21T13:37:51;23.70;99.90
10788;DHT22;5446;50.826;4.380;2022-08-21T13:40:50;23.60;99.90
10788;DHT22;5446;50.826;4.380;2022-08-21T13:43:22;23.70;99.90
10788;DHT22;5446;50.826;4.380;2022-08-21T13:45:52;23.60;99.90
10788;DHT22;5446;50.826;4.380;2022-08-21T13:48:20;23.70;99.90
10788;DHT22;5446;50.826;4.380;2022-08-21T13:50:47;23.60;99.90
10788;DHT22;5446;50.826;4.380;2022-08-21T13:53:35;23.70;99.90
10788;DHT22;5446;50.826;4.380;2022-08-21T13:56:03;23.70;99.90
10788;DHT22;5446;50.826;4.380;2022-08-21T13:58:44;23.70;99.90
10788;DHT22;5446;50.826;4.380;2022-08-21T14:01:32;23.70;99.90
10788;DHT22;5446;50.826;4.380;2022-08-21T14:04:18;23.80;99.90
10788;DHT22;5446;50.826;4.380;2022-08-21T14:06:45;23.80;99.90
10788;DHT22;5446;50.826;4.380;2022-08-21T14:09:34;23.70;99.90
10788;DHT22;5446;50.826;4.380;2022-08-21T14:12:13;23.80;99.90
10788;DHT22;5446;50.826;4.380;2022-08-21T14:14:40;23.70;99.90
10788;DHT22;5446;50.826;4.380;2022-08-21T14:17:09;23.60;99.90
10788;DHT22;5446;50.826;4.380;2022-08-21T14:19:38;23.50;99.90
10788;DHT22;5446;50.826;4.380;2022-08-21T14:22:23;23.40;99.90
10788;DHT22;5446;50.826;4.380;2022-08-21T14:24:59;23.50;99.90
10788;DHT22;5446;50.826;4.380;2022-08-21T14:27:28;23.60;99.90
10788;DHT22;5446;50.826;4.380;2022-08-21T14:30:04;23.50;99.90
10788;DHT22;5446;50.826;4.380;2022-08-21T14:32:39;23.40;99.90
10788;DHT22;5446;50.826;4.380;2022-08-21T14:35:06;23.40;99.90
10788;DHT22;5446;50.826;4.380;2022-08-21T14:37:32;23.50;99.90
10788;DHT22;5446;50.826;4.380;2022-08-21T14:39:58;23.70;99.90
10788;DHT22;5446;50.826;4.380;2022-08-21T14:42:24;23.80;99.90
10788;DHT22;5446;50.826;4.380;2022-08-21T14:44:50;23.90;99.90
10788;DHT22;5446;50.826;4.380;2022-08-21T14:47:15;24.00;99.90
10788;DHT22;5446;50.826;4.380;2022-08-21T14:49:41;23.90;99.90
10788;DHT22;5446;50.826;4.380;2022-08-21T14:52:08;23.90;99.90
10788;DHT22;5446;50.826;4.380;2022-08-21T14:54:34;24.00;99.90
10788;DHT22;5446;50.826;4.380;2022-08-21T14:57:09;24.00;99.90
10788;DHT22;5446;50.826;4.380;2022-08-21T14:59:36;23.80;99.90
10788;DHT22;5446;50.826;4.380;2022-08-21T15:02:03;24.20;99.90
10788;DHT22;5446;50.826;4.380;2022-08-21T15:04:33;24.10;99.90
10788;DHT22;5446;50.826;4.380;2022-08-21T15:06:58;24.00;99.90
10788;DHT22;5446;50.826;4.380;2022-08-21T15:09:24;24.20;99.90
10788;DHT22;5446;50.826;4.380;2022-08-21T15:11:53;24.20;99.90
10788;DHT22;5446;50.826;4.380;2022-08-21T15:14:23;24.10;99.90
10788;DHT22;5446;50.826;4.380;2022-08-21T15:16:50;24.00;99.90
10788;DHT22;5446;50.826;4.380;2022-08-21T15:19:16;24.00;99.90
10788;DHT22;5446;50.826;4.380;2022-08-21T15:21:42;23.80;99.90
10788;DHT22;5446;50.826;4.380;2022-08-21T15:24:07;23.70;99.90
10788;DHT22;5446;50.826;4.380;2022-08-21T15:26:34;23.70;99.90
10788;DHT22;5446;50.826;4.380;2022-08-21T15:29:00;23.90;99.90
10788;DHT22;5446;50.826;4.380;2022-08-21T15:31:27;24.00;99.90
10788;DHT22;5446;50.826;4.380;2022-08-21T15:33:53;24.00;99.90
10788;DHT22;5446;50.826;4.380;2022-08-21T15:36:19;24.00;99.90
10788;DHT22;5446;50.826;4.380;2022-08-21T15:38:45;24.00;99.90
10788;DHT22;5446;50.826;4.380;2022-08-21T15:41:11;24.00;99.90
10788;DHT22;5446;50.826;4.380;2022-08-21T15:43:48;24.10;99.90
10788;DHT22;5446;50.826;4.380;2022-08-21T15:46:16;24.10;99.90
10788;DHT22;5446;50.826;4.380;2022-08-21T15:48:43;24.10;99.90
10788;DHT22;5446;50.826;4.380;2022-08-21T15:51:10;24.20;99.90
10788;DHT22;5446;50.826;4.380;2022-08-21T15:53:36;24.20;99.90
10788;DHT22;5446;50.826;4.380;2022-08-21T15:56:05;24.30;99.90
10788;DHT22;5446;50.826;4.380;2022-08-21T15:58:31;24.20;99.90
10788;DHT22;5446;50.826;4.380;2022-08-21T16:01:00;24.10;99.90
10788;DHT22;5446;50.826;4.380;2022-08-21T16:03:26;24.00;99.90
10788;DHT22;5446;50.826;4.380;2022-08-21T16:05:52;23.80;99.90
10788;DHT22;5446;50.826;4.380;2022-08-21T16:08:20;23.70;99.90
10788;DHT22;5446;50.826;4.380;2022-08-21T16:10:46;23.60;99.90
10788;DHT22;5446;50.826;4.380;2022-08-21T16:13:29;23.60;99.90
10788;DHT22;5446;50.826;4.380;2022-08-21T16:15:59;23.50;99.90
10788;DHT22;5446;50.826;4.380;2022-08-21T16:18:25;23.70;99.90
10788;DHT22;5446;50.826;4.380;2022-08-21T16:20:51;23.70;99.90
10788;DHT22;5446;50.826;4.380;2022-08-21T16:23:18;23.70;99.90
10788;DHT22;5446;50.826;4.380;2022-08-21T16:25:44;23.60;99.90
10788;DHT22;5446;50.826;4.380;2022-08-21T16:28:13;23.60;99.90
10788;DHT22;5446;50.826;4.380;2022-08-21T16:30:40;23.80;99.90
10788;DHT22;5446;50.826;4.380;2022-08-21T16:33:07;23.80;99.90
10788;DHT22;5446;50.826;4.380;2022-08-21T16:35:36;23.80;99.90
10788;DHT22;5446;50.826;4.380;2022-08-21T16:38:02;24.00;99.90
10788;DHT22;5446;50.826;4.380;2022-08-21T16:40:28;23.80;99.90
10788;DHT22;5446;50.826;4.380;2022-08-21T16:42:54;23.70;99.90
10788;DHT22;5446;50.826;4.380;2022-08-21T16:45:20;23.80;99.90
10788;DHT22;5446;50.826;4.380;2022-08-21T16:47:46;23.80;99.90
10788;DHT22;5446;50.826;4.380;2022-08-21T16:50:16;23.80;99.90
10788;DHT22;5446;50.826;4.380;2022-08-21T16:52:42;23.80;99.90
10788;DHT22;5446;50.826;4.380;2022-08-21T16:55:08;23.80;99.90
10788;DHT22;5446;50.826;4.380;2022-08-21T16:57:34;23.80;99.90
10788;DHT22;5446;50.826;4.380;2022-08-21T17:00:00;23.80;99.90
10788;DHT22;5446;50.826;4.380;2022-08-21T17:02:32;23.90;99.90
10788;DHT22;5446;50.826;4.380;2022-08-21T17:05:00;23.80;99.90
10788;DHT22;5446;50.826;4.380;2022-08-21T17:07:27;23.80;99.90
10788;DHT22;5446;50.826;4.380;2022-08-21T17:09:53;23.70;99.90
10788;DHT22;5446;50.826;4.380;2022-08-21T17:12:19;23.60;99.90
10788;DHT22;5446;50.826;4.380;2022-08-21T17:14:46;23.60;99.90
10788;DHT22;5446;50.826;4.380;2022-08-21T17:17:12;23.40;99.90
10788;DHT22;5446;50.826;4.380;2022-08-21T17:19:39;23.50;99.90
10788;DHT22;5446;50.826;4.380;2022-08-21T17:22:05;23.50;99.90
10788;DHT22;5446;50.826;4.380;2022-08-21T17:24:32;23.40;99.90
10788;DHT22;5446;50.826;4.380;2022-08-21T17:26:58;23.20;99.90
10788;DHT22;5446;50.826;4.380;2022-08-21T17:29:27;23.20;99.90